createdAt,value
2022-10-17T00:00:16.483Z,27.95
2022-10-17T00:02:51.100Z,27.95
2022-10-17T00:05:25.392Z,29.60
2022-10-17T00:07:59.136Z,28.25
2022-10-17T00:10:33.369Z,29.42
2022-10-17T00:13:10.263Z,28.65
2022-10-17T00:15:46.972Z,27.90
2022-10-17T00:18:17.408Z,27.50
2022-10-17T00:20:51.186Z,28.60
2022-10-17T00:23:27.675Z,23.38
2022-10-17T00:26:02.842Z,27.17
2022-10-17T00:28:40.144Z,26.03
2022-10-17T00:31:14.586Z,29.10
2022-10-17T00:33:50.286Z,25.60
2022-10-17T00:36:24.717Z,27.58
2022-10-17T00:39:00.433Z,23.27
2022-10-17T00:41:35.990Z,21.10
2022-10-17T00:44:40.926Z,26.15
2022-10-17T00:47:18.798Z,24.73
2022-10-17T00:49:54.135Z,22.25
2022-10-17T00:52:29.625Z,28.85
2022-10-17T00:55:05.695Z,25.42
2022-10-17T00:57:40.203Z,26.52
2022-10-17T01:00:15.550Z,21.30
2022-10-17T01:02:53.168Z,24.67
2022-10-17T01:05:29.658Z,28.48
2022-10-17T01:08:04.459Z,26.20
2022-10-17T01:10:45.681Z,27.25
2022-10-17T01:13:24.572Z,31.13
2022-10-17T01:16:03.378Z,28.08
2022-10-17T01:18:48.103Z,26.75
2022-10-17T01:21:17.441Z,26.35
2022-10-17T01:24:22.308Z,26.65
2022-10-17T01:27:17.109Z,30.40
2022-10-17T01:30:00.838Z,26.10
2022-10-17T01:32:38.856Z,21.93
2022-10-17T01:35:15.169Z,27.57
2022-10-17T01:40:27.800Z,25.27
2022-10-17T01:43:07.990Z,24.55
2022-10-17T01:45:44.125Z,27.60
2022-10-17T01:48:22.341Z,29.48
2022-10-17T01:50:57.027Z,30.40
2022-10-17T01:53:32.967Z,31.05
2022-10-17T01:56:07.624Z,31.85
2022-10-17T01:58:44.360Z,29.20
2022-10-17T02:01:19.215Z,32.00
2022-10-17T02:03:56.121Z,30.00
2022-10-17T02:06:30.180Z,30.70
2022-10-17T02:09:04.185Z,26.63
2022-10-17T02:11:38.070Z,26.50
2022-10-17T02:14:22.264Z,30.60
2022-10-17T02:16:56.318Z,31.23
2022-10-17T02:19:38.177Z,24.92
2022-10-17T02:22:19.902Z,27.30
2022-10-17T02:24:56.088Z,24.88
2022-10-17T02:27:36.887Z,27.45
2022-10-17T02:30:13.768Z,24.55
2022-10-17T02:32:51.137Z,26.83
2022-10-17T02:35:31.452Z,24.80
2022-10-17T02:38:06.833Z,23.25
2022-10-17T02:40:41.181Z,29.02
2022-10-17T02:43:15.307Z,25.85
2022-10-17T02:45:49.108Z,28.00
2022-10-17T02:48:25.575Z,32.37
2022-10-17T02:51:07.525Z,30.75
2022-10-17T02:53:45.785Z,31.23
2022-10-17T02:56:22.688Z,24.20
2022-10-17T02:58:59.191Z,25.95
2022-10-17T03:01:33.141Z,25.83
2022-10-17T03:04:11.272Z,28.33
2022-10-17T03:06:47.772Z,28.15
2022-10-17T03:09:22.163Z,29.23
2022-10-17T03:11:56.022Z,34.08
2022-10-17T03:14:30.145Z,29.45
2022-10-17T03:17:04.403Z,31.58
2022-10-17T03:19:39.009Z,32.80
2022-10-17T03:22:16.496Z,34.72
2022-10-17T03:24:53.158Z,32.95
2022-10-17T03:27:27.448Z,32.85
2022-10-17T03:30:02.153Z,31.60
2022-10-17T03:32:38.312Z,31.27
2022-10-17T03:35:14.868Z,30.42
2022-10-17T03:37:56.369Z,32.58
2022-10-17T03:40:32.047Z,33.30
2022-10-17T03:43:06.081Z,31.43
2022-10-17T03:45:40.281Z,33.60
2022-10-17T03:48:15.195Z,32.17
2022-10-17T03:50:49.290Z,35.70
2022-10-17T03:53:26.443Z,32.38
2022-10-17T03:56:01.505Z,31.55
2022-10-17T03:58:36.262Z,41.03
2022-10-17T04:01:10.514Z,37.70
2022-10-17T04:03:45.538Z,32.05
2022-10-17T04:06:20.450Z,33.50
2022-10-17T04:08:58.484Z,33.15
2022-10-17T04:11:39.425Z,34.80
2022-10-17T04:14:15.425Z,33.35
2022-10-17T04:16:50.564Z,33.70
2022-10-17T04:19:28.739Z,33.92
2022-10-17T04:22:03.412Z,33.80
2022-10-17T04:24:45.321Z,34.00
2022-10-17T04:27:33.646Z,34.28
2022-10-17T04:30:10.472Z,32.67
2022-10-17T04:32:45.161Z,35.08
2022-10-17T04:35:24.466Z,33.50
2022-10-17T04:38:06.016Z,32.92
2022-10-17T04:40:44.045Z,33.15
2022-10-17T04:43:19.848Z,36.55
2022-10-17T04:45:54.032Z,31.92
2022-10-17T04:48:28.773Z,39.00
2022-10-17T04:51:04.697Z,36.53
2022-10-17T04:53:45.744Z,33.63
2022-10-17T04:56:23.853Z,36.45
2022-10-17T04:58:58.357Z,32.40
2022-10-17T05:01:33.528Z,33.30
2022-10-17T05:04:08.758Z,35.22
2022-10-17T05:06:43.406Z,35.60
2022-10-17T05:09:35.196Z,37.63
2022-10-17T05:12:12.416Z,33.45
2022-10-17T05:14:50.330Z,32.70
2022-10-17T05:17:25.478Z,32.53
2022-10-17T05:20:00.572Z,36.42
2022-10-17T05:22:41.996Z,33.08
2022-10-17T05:25:19.292Z,34.50
2022-10-17T05:27:58.491Z,35.15
2022-10-17T05:30:36.888Z,34.50
2022-10-17T05:33:15.756Z,32.20
2022-10-17T05:35:50.451Z,33.17
2022-10-17T05:38:24.368Z,27.75
2022-10-17T05:41:01.439Z,29.17
2022-10-17T05:43:39.614Z,29.88
2022-10-17T05:46:14.368Z,33.50
2022-10-17T05:48:49.125Z,41.05
2022-10-17T05:51:24.318Z,64.60
2022-10-17T05:53:59.200Z,42.45
2022-10-17T05:56:37.669Z,34.85
2022-10-17T05:59:16.412Z,29.63
2022-10-17T06:01:58.272Z,28.83
2022-10-17T06:04:32.328Z,28.70
2022-10-17T06:12:19.226Z,27.50
2022-10-17T06:17:34.793Z,26.65
2022-10-17T06:20:11.703Z,28.00
2022-10-17T06:22:46.429Z,26.40
2022-10-17T06:25:29.464Z,26.25
2022-10-17T06:28:04.682Z,25.88
2022-10-17T06:30:42.635Z,24.60
2022-10-17T06:33:18.251Z,24.07
2022-10-17T06:35:55.310Z,25.25
2022-10-17T06:38:31.652Z,24.35
2022-10-17T06:41:09.878Z,25.73
2022-10-17T06:43:46.819Z,23.90
2022-10-17T06:46:50.588Z,24.50
2022-10-17T06:49:26.487Z,24.20
2022-10-17T06:52:18.040Z,23.50
2022-10-17T06:55:24.623Z,22.90
2022-10-17T06:58:22.797Z,24.65
2022-10-17T07:01:16.355Z,22.92
2022-10-17T07:03:55.786Z,23.87
2022-10-17T07:06:30.659Z,23.95
2022-10-17T07:09:10.535Z,24.70
2022-10-17T07:11:45.984Z,24.10
2022-10-17T07:14:32.544Z,23.17
2022-10-17T07:17:08.753Z,23.98
2022-10-17T07:22:22.156Z,23.52
2022-10-17T07:25:00.839Z,21.95
2022-10-17T07:27:41.384Z,23.27
2022-10-17T07:30:16.171Z,22.15
2022-10-17T07:33:01.800Z,20.55
2022-10-17T07:35:41.213Z,21.45
2022-10-17T07:38:17.075Z,23.88
2022-10-17T07:40:58.003Z,22.42
2022-10-17T07:43:32.790Z,22.60
2022-10-17T07:46:08.757Z,20.90
2022-10-17T07:48:44.570Z,23.05
2022-10-17T07:51:23.498Z,20.60
2022-10-17T07:53:58.991Z,19.48
2022-10-17T07:56:33.943Z,19.40
2022-10-17T07:59:09.528Z,18.97
2022-10-17T08:04:18.804Z,19.73
2022-10-17T08:07:00.654Z,18.55
2022-10-17T08:09:46.439Z,19.98
2022-10-17T08:12:21.230Z,19.58
2022-10-17T08:14:55.672Z,21.00
2022-10-17T08:17:30.919Z,19.13
2022-10-17T08:20:05.810Z,19.52
2022-10-17T08:22:43.518Z,21.03
2022-10-17T08:25:19.008Z,19.92
2022-10-17T08:27:54.341Z,19.75
2022-10-17T08:30:30.910Z,19.87
2022-10-17T08:33:04.675Z,19.48
2022-10-17T08:35:40.063Z,21.00
2022-10-17T08:38:20.968Z,18.80
2022-10-17T08:40:56.815Z,22.58
2022-10-17T08:43:45.475Z,18.77
2022-10-17T08:46:20.953Z,19.85
2022-10-17T08:48:55.934Z,19.40
2022-10-17T08:51:32.553Z,18.50
2022-10-17T08:54:15.788Z,20.52
2022-10-17T08:56:52.989Z,19.67
2022-10-17T08:59:30.957Z,20.05
2022-10-17T09:02:04.763Z,19.37
2022-10-17T09:04:49.262Z,19.15
2022-10-17T09:07:25.567Z,18.17
2022-10-17T09:10:07.641Z,16.80
2022-10-17T09:12:51.002Z,19.02
2022-10-17T09:15:39.190Z,17.50
2022-10-17T09:18:16.692Z,20.17
2022-10-17T09:20:55.691Z,19.05
2022-10-17T09:23:32.855Z,17.92
2022-10-17T09:26:11.382Z,18.85
2022-10-17T09:28:45.559Z,17.65
2022-10-17T09:31:23.410Z,18.25
2022-10-17T09:33:58.867Z,18.30
2022-10-17T09:36:34.473Z,21.27
2022-10-17T09:39:09.612Z,17.98
2022-10-17T09:41:47.590Z,18.40
2022-10-17T09:44:23.302Z,16.00
2022-10-17T09:49:35.918Z,16.17
2022-10-17T09:52:13.970Z,17.63
2022-10-17T09:54:49.481Z,17.40
2022-10-17T09:57:26.642Z,16.02
2022-10-17T10:00:02.579Z,15.60
2022-10-17T10:02:41.056Z,16.55
2022-10-17T10:05:19.494Z,15.20
2022-10-17T10:08:04.845Z,14.70
2022-10-17T10:10:39.490Z,15.50
2022-10-17T10:13:23.412Z,14.57
2022-10-17T10:15:57.528Z,15.65
2022-10-17T10:18:33.676Z,15.65
2022-10-17T10:21:10.895Z,14.25
2022-10-17T10:23:45.534Z,14.15
2022-10-17T10:26:26.246Z,14.50
2022-10-17T10:29:04.816Z,14.70
2022-10-17T10:31:42.534Z,14.88
2022-10-17T10:34:19.444Z,13.70
2022-10-17T10:36:57.001Z,14.73
2022-10-17T10:39:40.289Z,14.93
2022-10-17T10:42:23.920Z,14.20
2022-10-17T10:45:02.453Z,13.20
2022-10-17T10:47:36.300Z,13.93
2022-10-17T10:50:18.756Z,13.05
2022-10-17T10:52:56.438Z,12.32
2022-10-17T10:55:31.656Z,12.10
2022-10-17T10:58:09.713Z,11.18
2022-10-17T11:00:47.073Z,11.10
2022-10-17T11:03:22.707Z,11.65
2022-10-17T11:08:47.506Z,11.75
2022-10-17T11:11:24.170Z,11.90
2022-10-17T11:14:08.804Z,12.63
2022-10-17T11:16:49.629Z,11.75
2022-10-17T11:19:28.572Z,12.35
2022-10-17T11:22:08.637Z,11.53
2022-10-17T11:24:45.469Z,11.35
2022-10-17T11:27:19.421Z,10.05
2022-10-17T11:29:53.473Z,12.10
2022-10-17T11:32:34.064Z,10.90
2022-10-17T11:35:11.870Z,10.85
2022-10-17T11:37:49.815Z,10.45
2022-10-17T11:40:28.400Z,11.70
2022-10-17T11:43:03.540Z,10.15
2022-10-17T11:45:39.372Z,10.98
2022-10-17T11:48:19.349Z,11.95
2022-10-17T11:53:51.613Z,10.77
2022-10-17T11:56:29.779Z,10.88
2022-10-17T11:59:11.266Z,10.73
2022-10-17T12:01:47.684Z,10.80
2022-10-17T12:04:37.662Z,11.30
2022-10-17T12:07:08.637Z,10.95
2022-10-17T12:09:46.352Z,10.30
2022-10-17T12:12:28.578Z,10.70
2022-10-17T12:15:31.931Z,11.45
2022-10-17T12:18:06.718Z,10.35
2022-10-17T12:20:44.233Z,10.30
2022-10-17T12:23:26.126Z,10.57
2022-10-17T12:26:04.813Z,10.20
2022-10-17T12:28:45.357Z,10.60
2022-10-17T12:31:32.504Z,9.25
2022-10-17T12:34:09.168Z,10.50
2022-10-17T12:36:47.394Z,9.43
2022-10-17T12:39:45.553Z,9.35
2022-10-17T12:42:37.390Z,9.50
2022-10-17T12:45:47.758Z,8.80
2022-10-17T12:48:52.981Z,8.68
2022-10-17T12:51:35.852Z,8.32
2022-10-17T12:54:17.687Z,8.70
2022-10-17T12:56:52.458Z,7.85
2022-10-17T12:59:28.912Z,8.10
2022-10-17T13:02:04.806Z,8.07
2022-10-17T13:04:39.689Z,8.90
2022-10-17T13:07:17.281Z,8.77
2022-10-17T13:09:54.371Z,8.70
2022-10-17T13:12:28.913Z,8.70
2022-10-17T13:15:03.504Z,8.03
2022-10-17T13:17:40.679Z,8.70
2022-10-17T13:20:29.014Z,9.07
2022-10-17T13:23:06.137Z,7.78
2022-10-17T13:25:43.596Z,9.00
2022-10-17T13:28:17.453Z,7.47
2022-10-17T13:30:53.673Z,8.93
2022-10-17T13:33:36.127Z,9.20
2022-10-17T13:36:11.828Z,9.35
2022-10-17T13:38:46.533Z,8.40
2022-10-17T13:41:42.046Z,9.40
2022-10-17T13:44:16.834Z,9.40
2022-10-17T13:46:51.737Z,9.17
2022-10-17T13:49:30.269Z,9.57
2022-10-17T13:52:05.439Z,9.32
2022-10-17T13:54:40.740Z,9.02
2022-10-17T13:57:26.143Z,8.90
2022-10-17T14:00:05.133Z,10.30
2022-10-17T14:02:46.635Z,9.43
2022-10-17T14:05:23.544Z,9.45
2022-10-17T14:08:11.357Z,10.57
2022-10-17T14:10:48.047Z,9.50
2022-10-17T14:13:26.636Z,9.48
2022-10-17T14:15:57.893Z,7.97
2022-10-17T14:18:36.403Z,7.88
2022-10-17T14:24:29.359Z,8.55
2022-10-17T14:27:05.010Z,8.25
2022-10-17T14:32:35.081Z,6.90
2022-10-17T14:35:30.654Z,6.68
2022-10-17T14:38:06.150Z,6.35
2022-10-17T14:40:40.416Z,7.03
2022-10-17T14:43:19.881Z,6.53
2022-10-17T14:45:53.471Z,6.35
2022-10-17T14:48:32.242Z,6.18
2022-10-17T14:51:11.048Z,6.85
2022-10-17T14:53:45.650Z,6.80
2022-10-17T14:56:27.839Z,6.88
2022-10-17T14:58:58.849Z,6.40
2022-10-17T15:01:33.423Z,7.05
2022-10-17T15:04:10.989Z,6.57
2022-10-17T15:06:44.499Z,5.95
2022-10-17T15:09:18.545Z,6.80
2022-10-17T15:11:52.446Z,6.68
2022-10-17T15:14:26.624Z,7.25
2022-10-17T15:17:00.524Z,7.30
2022-10-17T15:19:37.879Z,6.90
2022-10-17T15:22:12.391Z,6.50
2022-10-17T15:24:46.440Z,7.25
2022-10-17T15:27:21.617Z,7.23
2022-10-17T15:29:56.749Z,7.90
2022-10-17T15:32:31.357Z,7.45
2022-10-17T15:35:09.751Z,7.05
2022-10-17T15:37:47.064Z,7.25
2022-10-17T15:40:22.439Z,7.97
2022-10-17T15:42:56.498Z,7.82
2022-10-17T15:45:30.873Z,7.50
2022-10-17T15:48:11.220Z,8.27
2022-10-17T15:50:48.956Z,7.53
2022-10-17T15:53:24.390Z,6.93
2022-10-17T15:55:58.772Z,6.47
2022-10-17T15:58:36.855Z,7.35
2022-10-17T16:01:14.699Z,6.95
2022-10-17T16:03:50.659Z,7.80
2022-10-17T16:06:28.717Z,6.90
2022-10-17T16:09:03.572Z,6.57
2022-10-17T16:11:38.521Z,7.40
2022-10-17T16:14:14.392Z,7.00
2022-10-17T16:16:48.288Z,7.05
2022-10-17T16:19:23.271Z,7.20
2022-10-17T16:22:04.320Z,7.05
2022-10-17T16:24:39.285Z,7.10
2022-10-17T16:27:13.487Z,7.30
2022-10-17T16:29:47.230Z,7.60
2022-10-17T16:32:21.232Z,7.68
2022-10-17T16:34:55.401Z,7.65
2022-10-17T16:37:31.974Z,6.88
2022-10-17T16:40:06.376Z,6.88
2022-10-17T16:42:39.460Z,6.60
2022-10-17T16:45:14.156Z,7.18
2022-10-17T16:47:48.378Z,7.45
2022-10-17T16:50:22.829Z,7.05
2022-10-17T16:53:00.048Z,7.20
2022-10-17T16:55:34.396Z,7.32
2022-10-17T16:58:08.322Z,7.30
2022-10-17T17:00:42.347Z,7.55
2022-10-17T17:03:16.298Z,6.93
2022-10-17T17:05:53.384Z,7.28
2022-10-17T17:08:29.878Z,7.10
2022-10-17T17:11:04.172Z,7.38
2022-10-17T17:13:38.358Z,7.00
2022-10-17T17:16:14.563Z,7.20
2022-10-17T17:18:49.402Z,6.85
2022-10-17T17:21:23.232Z,7.60
2022-10-17T17:24:00.728Z,7.30
2022-10-17T17:26:36.182Z,7.75
2022-10-17T17:29:10.984Z,7.00
2022-10-17T17:31:45.244Z,8.00
2022-10-17T17:34:19.247Z,7.47
2022-10-17T17:36:53.269Z,6.90
2022-10-17T17:39:29.907Z,7.75
2022-10-17T17:42:04.587Z,7.25
2022-10-17T17:44:38.298Z,7.33
2022-10-17T17:47:12.796Z,7.20
2022-10-17T17:49:48.509Z,7.75
2022-10-17T17:52:22.764Z,8.83
2022-10-17T17:55:00.910Z,7.70
2022-10-17T17:57:35.552Z,7.53
2022-10-17T18:00:11.011Z,7.47
2022-10-17T18:02:46.221Z,7.70
2022-10-17T18:05:18.964Z,7.05
2022-10-17T18:07:55.852Z,7.70
2022-10-17T18:10:34.342Z,8.25
2022-10-17T18:13:07.679Z,7.47
2022-10-17T18:15:38.802Z,7.60
2022-10-17T18:18:13.640Z,8.25
2022-10-17T18:20:48.238Z,7.43
2022-10-17T18:23:23.115Z,7.53
2022-10-17T18:26:02.288Z,7.33
2022-10-17T18:28:37.594Z,7.68
2022-10-17T18:31:12.240Z,7.55
2022-10-17T18:33:47.080Z,7.22
2022-10-17T18:36:21.881Z,7.57
2022-10-17T18:39:00.461Z,6.75
2022-10-17T18:41:38.567Z,8.20
2022-10-17T18:44:14.012Z,7.07
2022-10-17T18:49:25.523Z,7.25
2022-10-17T18:52:00.869Z,8.55
2022-10-17T18:54:36.719Z,7.28
2022-10-17T18:59:48.951Z,7.65
2022-10-17T19:02:24.012Z,7.20
2022-10-17T19:04:58.682Z,9.43
2022-10-17T19:07:33.545Z,9.30
2022-10-17T19:10:07.961Z,11.13
2022-10-17T19:12:45.094Z,9.85
2022-10-17T19:15:22.474Z,10.65
2022-10-17T19:18:00.623Z,10.23
2022-10-17T19:20:37.197Z,9.52
2022-10-17T19:23:11.647Z,11.85
2022-10-17T19:25:46.141Z,9.10
2022-10-17T19:28:23.489Z,10.25
2022-10-17T19:30:57.584Z,9.15
2022-10-17T19:33:31.370Z,8.85
2022-10-17T19:36:07.758Z,8.50
2022-10-17T19:38:42.645Z,9.45
2022-10-17T19:41:17.270Z,8.67
2022-10-17T19:43:54.805Z,7.60
2022-10-17T19:46:30.369Z,8.40
2022-10-17T19:49:04.630Z,8.57
2022-10-17T19:51:38.942Z,8.98
2022-10-17T19:54:13.496Z,7.70
2022-10-17T19:56:50.261Z,8.70
2022-10-17T19:59:28.694Z,8.53
2022-10-17T20:02:03.189Z,8.82
2022-10-17T20:04:49.474Z,9.85
2022-10-17T20:07:31.893Z,8.20
2022-10-17T20:10:08.929Z,7.53
2022-10-17T20:12:44.413Z,7.72
2022-10-17T20:15:23.173Z,8.63
2022-10-17T20:17:58.066Z,8.37
2022-10-17T20:20:33.286Z,7.95
2022-10-17T20:23:09.168Z,8.47
2022-10-17T20:25:43.564Z,7.78
2022-10-17T20:28:17.641Z,9.20
2022-10-17T20:30:54.418Z,9.23
2022-10-17T20:33:32.036Z,8.35
2022-10-17T20:36:08.316Z,9.13
2022-10-17T20:38:43.250Z,8.38
2022-10-17T20:41:17.723Z,7.83
2022-10-17T20:43:53.644Z,8.93
2022-10-17T20:46:44.310Z,9.45
2022-10-17T20:49:24.148Z,9.13
2022-10-17T20:51:59.171Z,8.35
2022-10-17T20:54:33.823Z,8.37
2022-10-17T20:57:09.664Z,8.30
2022-10-17T20:59:45.787Z,8.17
2022-10-17T21:02:26.491Z,9.47
2022-10-17T21:05:02.633Z,9.60
2022-10-17T21:07:37.869Z,9.20
2022-10-17T21:10:34.514Z,8.50
2022-10-17T21:13:08.085Z,9.27
2022-10-17T21:15:45.573Z,10.23
2022-10-17T21:18:23.646Z,9.43
2022-10-17T21:20:59.085Z,8.75
2022-10-17T21:23:33.996Z,8.15
2022-10-17T21:26:10.290Z,8.00
2022-10-17T21:28:45.600Z,9.00
2022-10-17T21:31:20.780Z,7.88
2022-10-17T21:33:59.212Z,8.77
2022-10-17T21:36:33.444Z,8.45
2022-10-17T21:41:43.591Z,7.90
2022-10-17T21:44:19.641Z,7.20
2022-10-17T21:46:53.796Z,7.25
2022-10-17T21:49:30.686Z,6.60
2022-10-17T21:52:07.444Z,7.28
2022-10-17T21:54:42.170Z,8.55
2022-10-17T21:59:53.158Z,7.07
2022-10-17T22:02:28.401Z,9.20
2022-10-17T22:05:05.684Z,7.93
2022-10-17T22:07:40.306Z,8.50
2022-10-17T22:10:14.603Z,8.80
2022-10-17T22:12:49.281Z,8.10
2022-10-17T22:15:24.044Z,7.57
2022-10-17T22:17:59.389Z,9.27
2022-10-17T22:20:36.941Z,9.13
2022-10-17T22:23:12.204Z,8.88
2022-10-17T22:25:46.977Z,9.20
2022-10-17T22:28:22.029Z,8.63
2022-10-17T22:30:57.411Z,9.10
2022-10-17T22:33:32.466Z,7.97
2022-10-17T22:36:10.514Z,8.37
2022-10-17T22:38:45.112Z,7.72
2022-10-17T22:41:19.872Z,7.78
2022-10-17T22:43:54.698Z,7.43
2022-10-17T22:46:29.112Z,6.85
2022-10-17T22:49:05.815Z,7.72
2022-10-17T22:51:50.010Z,7.50
2022-10-17T22:54:25.191Z,7.75
2022-10-17T22:57:01.791Z,6.85
2022-10-17T22:59:37.098Z,8.13
2022-10-17T23:02:11.601Z,8.25
2022-10-17T23:04:45.817Z,9.35
2022-10-17T23:07:26.258Z,9.07
2022-10-17T23:10:01.204Z,8.97
2022-10-17T23:12:38.077Z,9.15
2022-10-17T23:15:14.370Z,9.55
2022-10-17T23:17:49.600Z,10.87
2022-10-17T23:20:24.039Z,9.00
2022-10-17T23:23:01.641Z,9.27
2022-10-17T23:25:38.964Z,8.60
2022-10-17T23:28:13.592Z,8.30
2022-10-17T23:30:48.101Z,8.75
2022-10-17T23:33:23.029Z,9.18
2022-10-17T23:35:57.581Z,9.25
2022-10-17T23:38:37.284Z,7.75
2022-10-17T23:41:11.403Z,9.00
2022-10-17T23:43:45.663Z,8.30
2022-10-17T23:46:20.240Z,9.63
2022-10-17T23:48:57.003Z,9.30
2022-10-17T23:51:32.163Z,10.10
2022-10-17T23:54:10.011Z,8.90
2022-10-17T23:56:46.173Z,9.63
2022-10-17T23:59:21.961Z,9.00
